createdAt,value
2016-04-15T00:00:04.160Z,43.14
2016-04-15T00:01:04.163Z,43.14
2016-04-15T00:02:04.165Z,43.14
2016-04-15T00:03:04.168Z,43.04
2016-04-15T00:04:04.374Z,43.14
2016-04-15T00:05:04.204Z,43.14
2016-04-15T00:06:04.192Z,43.14
2016-04-15T00:07:04.195Z,43.24
2016-04-15T00:08:04.197Z,43.04
2016-04-15T00:09:04.215Z,43.24
2016-04-15T00:10:04.203Z,43.24
2016-04-15T00:11:04.221Z,43.04
2016-04-15T00:12:04.224Z,43.04
2016-04-15T00:13:04.242Z,43.04
2016-04-15T00:14:04.229Z,43.04
2016-04-15T00:15:04.247Z,43.04
2016-04-15T00:16:04.250Z,43.04
2016-04-15T00:17:04.253Z,43.14
2016-04-15T00:18:04.255Z,43.04
2016-04-15T00:19:04.258Z,43.14
2016-04-15T00:20:04.354Z,43.04
2016-04-15T00:21:04.279Z,43.04
2016-04-15T00:22:04.297Z,43.24
2016-04-15T00:23:04.284Z,43.14
2016-04-15T00:24:04.302Z,43.14
2016-04-15T00:25:04.305Z,43.14
2016-04-15T00:26:04.308Z,43.14
2016-04-15T00:27:04.311Z,43.14
2016-04-15T00:28:04.313Z,42.94
2016-04-15T00:29:04.332Z,43.24
2016-04-15T00:30:04.334Z,43.04
2016-04-15T00:31:04.196Z,43.04
2016-04-15T00:32:04.184Z,43.04
2016-04-15T00:33:04.344Z,43.04
2016-04-15T00:34:04.346Z,43.14
2016-04-15T00:35:04.365Z,42.94
2016-04-15T00:36:04.374Z,43.04
2016-04-15T00:37:04.377Z,42.94
2016-04-15T00:38:04.379Z,43.04
2016-04-15T00:39:04.398Z,43.24
2016-04-15T00:40:04.401Z,43.33
2016-04-15T00:41:04.403Z,43.33
2016-04-15T00:42:04.406Z,43.24
2016-04-15T00:43:04.408Z,43.14
2016-04-15T00:44:04.411Z,43.24
2016-04-15T00:45:04.429Z,43.24
2016-04-15T00:46:04.432Z,43.04
2016-04-15T00:47:04.435Z,43.24
2016-04-15T00:48:04.438Z,43.33
2016-04-15T00:49:04.440Z,43.24
2016-04-15T00:50:04.443Z,43.24
2016-04-15T00:51:04.462Z,43.24
2016-04-15T00:52:04.464Z,43.24
2016-04-15T00:53:04.483Z,43.24
2016-04-15T00:54:04.485Z,43.24
2016-04-15T00:55:04.488Z,43.14
2016-04-15T00:56:04.505Z,43.43
2016-04-15T00:57:04.493Z,43.24
2016-04-15T00:58:04.496Z,43.14
2016-04-15T00:59:04.498Z,43.14
2016-04-15T01:00:04.501Z,43.24
2016-04-15T01:01:04.519Z,43.24
2016-04-15T01:02:04.522Z,43.33
2016-04-15T01:03:04.525Z,43.24
2016-04-15T01:04:04.543Z,43.24
2016-04-15T01:05:04.546Z,43.14
2016-04-15T01:06:04.392Z,43.24
2016-04-15T01:07:04.567Z,43.14
2016-04-15T01:08:04.554Z,43.14
2016-04-15T01:09:04.557Z,43.33
2016-04-15T01:10:04.575Z,43.24
2016-04-15T01:11:04.578Z,43.24
2016-04-15T01:12:04.580Z,43.14
2016-04-15T01:13:04.583Z,43.24
2016-04-15T01:14:04.601Z,43.24
2016-04-15T01:15:04.603Z,43.24
2016-04-15T01:16:04.607Z,43.33
2016-04-15T01:17:04.609Z,43.24
2016-04-15T01:18:04.612Z,43.14
2016-04-15T01:19:04.631Z,43.33
2016-04-15T01:20:04.633Z,43.24
2016-04-15T01:21:04.636Z,43.43
2016-04-15T01:22:04.638Z,43.14
2016-04-15T01:23:04.656Z,43.14
2016-04-15T01:24:04.644Z,43.33
2016-04-15T01:25:04.661Z,43.14
2016-04-15T01:26:04.665Z,43.33
2016-04-15T01:27:04.667Z,43.43
2016-04-15T01:28:04.670Z,43.24
2016-04-15T01:29:04.673Z,43.24
2016-04-15T01:30:04.691Z,43.24
2016-04-15T01:31:04.694Z,43.43
2016-04-15T01:32:04.696Z,43.33
2016-04-15T01:33:04.699Z,43.33
2016-04-15T01:34:04.702Z,43.33
2016-04-15T01:35:04.721Z,43.43
2016-04-15T01:36:04.723Z,43.24
2016-04-15T01:37:04.726Z,43.33
2016-04-15T01:38:04.728Z,43.33
2016-04-15T01:39:04.731Z,43.43
2016-04-15T01:40:04.749Z,43.33
2016-04-15T01:41:04.751Z,43.33
2016-04-15T01:42:04.755Z,43.24
2016-04-15T01:43:04.757Z,43.33
2016-04-15T01:44:04.760Z,43.43
2016-04-15T01:45:04.779Z,43.43
2016-04-15T01:46:04.781Z,43.33
2016-04-15T01:47:04.784Z,43.24
2016-04-15T01:48:04.786Z,43.33
2016-04-15T01:49:04.789Z,43.24
2016-04-15T01:50:04.792Z,43.33
2016-04-15T01:51:04.794Z,43.24
2016-04-15T01:52:04.813Z,43.43
2016-04-15T01:53:04.815Z,43.33
2016-04-15T01:54:04.818Z,43.33
2016-04-15T01:55:04.836Z,43.33
2016-04-15T01:56:04.838Z,43.14
2016-04-15T01:57:04.842Z,43.33
2016-04-15T01:58:04.844Z,43.41
2016-04-15T01:59:04.847Z,43.33
2016-04-15T02:00:04.866Z,43.33
2016-04-15T02:01:04.869Z,43.31
2016-04-15T02:02:04.871Z,43.43
2016-04-15T02:03:04.874Z,43.24
2016-04-15T02:04:04.876Z,43.31
2016-04-15T02:05:04.879Z,43.43
2016-04-15T02:06:04.897Z,43.33
2016-04-15T02:07:04.900Z,43.31
2016-04-15T02:08:04.903Z,43.33
2016-04-15T02:09:04.921Z,43.33
2016-04-15T02:10:04.908Z,43.31
2016-04-15T02:11:04.927Z,43.31
2016-04-15T02:12:04.929Z,43.31
2016-04-15T02:13:04.932Z,43.31
2016-04-15T02:14:04.934Z,43.41
2016-04-15T02:15:04.937Z,43.33
2016-04-15T02:16:04.956Z,43.33
2016-04-15T02:17:04.958Z,43.31
2016-04-15T02:18:04.961Z,43.31
2016-04-15T02:19:04.963Z,43.33
2016-04-15T02:20:04.981Z,43.41
2016-04-15T02:21:04.969Z,43.31
2016-04-15T02:22:04.986Z,43.31
2016-04-15T02:23:04.990Z,43.31
2016-04-15T02:24:04.992Z,43.33
2016-04-15T02:25:04.995Z,43.31
2016-04-15T02:26:05.014Z,43.33
2016-04-15T02:27:05.016Z,43.31
2016-04-15T02:28:05.019Z,43.33
2016-04-15T02:29:05.038Z,43.41
2016-04-15T02:30:05.055Z,43.31
2016-04-15T02:31:05.027Z,43.33
2016-04-15T02:32:05.046Z,43.31
2016-04-15T02:33:05.048Z,43.33
2016-04-15T02:34:05.066Z,43.33
2016-04-15T02:35:05.068Z,43.33
2016-04-15T02:36:05.056Z,43.31
2016-04-15T02:37:05.074Z,43.33
2016-04-15T02:38:05.077Z,43.41
2016-04-15T02:39:05.080Z,43.33
2016-04-15T02:40:05.082Z,43.31
2016-04-15T02:41:05.085Z,43.43
2016-04-15T02:42:05.104Z,43.33
2016-04-15T02:43:05.106Z,43.31
2016-04-15T02:44:05.109Z,43.43
2016-04-15T02:45:05.173Z,43.31
2016-04-15T02:46:05.114Z,43.31
2016-04-15T02:47:05.117Z,43.33
2016-04-15T02:48:05.135Z,43.33
2016-04-15T02:49:05.138Z,43.41
2016-04-15T02:50:05.157Z,43.31
2016-04-15T02:51:05.159Z,43.31
2016-04-15T02:52:05.162Z,43.41
2016-04-15T02:53:05.165Z,43.21
2016-04-15T02:54:05.167Z,43.21
2016-04-15T02:55:05.170Z,43.41
2016-04-15T02:56:05.172Z,43.52
2016-04-15T02:57:05.191Z,43.31
2016-04-15T02:58:05.194Z,43.31
2016-04-15T02:59:05.196Z,43.31
2016-04-15T03:00:04.496Z,43.31
2016-04-15T03:01:05.217Z,43.31
2016-04-15T03:02:05.252Z,43.31
2016-04-15T03:03:05.222Z,43.31
2016-04-15T03:04:05.225Z,43.41
2016-04-15T03:05:05.244Z,43.41
2016-04-15T03:06:05.230Z,43.43
2016-04-15T03:07:05.233Z,43.31
2016-04-15T03:08:05.268Z,43.41
2016-04-15T03:09:05.254Z,43.31
2016-04-15T03:10:05.257Z,43.31
2016-04-15T03:11:05.275Z,43.31
2016-04-15T03:12:05.262Z,43.41
2016-04-15T03:13:05.265Z,43.41
2016-04-15T03:14:05.283Z,43.31
2016-04-15T03:15:05.317Z,43.31
2016-04-15T03:16:05.289Z,43.31
2016-04-15T03:17:05.291Z,43.31
2016-04-15T03:18:05.294Z,43.31
2016-04-15T03:19:05.297Z,43.31
2016-04-15T03:20:05.315Z,43.31
2016-04-15T03:21:05.318Z,43.41
2016-04-15T03:22:05.336Z,43.31
2016-04-15T03:23:05.339Z,43.31
2016-04-15T03:24:05.342Z,43.31
2016-04-15T03:25:05.344Z,43.31
2016-04-15T03:26:05.347Z,43.21
2016-04-15T03:27:05.349Z,43.31
2016-04-15T03:28:05.352Z,43.41
2016-04-15T03:29:05.370Z,43.21
2016-04-15T03:30:05.405Z,43.41
2016-04-15T03:31:05.376Z,43.31
2016-04-15T03:32:05.394Z,43.31
2016-04-15T03:33:05.397Z,43.21
2016-04-15T03:34:05.384Z,43.31
2016-04-15T03:35:05.402Z,43.41
2016-04-15T03:36:05.405Z,43.21
2016-04-15T03:37:05.407Z,43.31
2016-04-15T03:38:05.410Z,43.41
2016-04-15T03:39:05.413Z,43.31
2016-04-15T03:40:05.432Z,43.31
2016-04-15T03:41:05.449Z,43.31
2016-04-15T03:42:05.437Z,43.31
2016-04-15T03:43:05.455Z,43.21
2016-04-15T03:44:05.457Z,43.31
2016-04-15T03:45:05.460Z,43.31
2016-04-15T03:46:05.463Z,43.31
2016-04-15T03:47:05.466Z,43.21
2016-04-15T03:48:05.468Z,43.31
2016-04-15T03:49:05.471Z,43.41
2016-04-15T03:50:05.489Z,43.31
2016-04-15T03:51:05.492Z,43.21
2016-04-15T03:52:05.495Z,43.31
2016-04-15T03:53:05.497Z,43.21
2016-04-15T03:54:05.500Z,43.41
2016-04-15T03:55:05.503Z,43.31
2016-04-15T03:56:05.521Z,43.31
2016-04-15T03:57:05.524Z,43.21
2016-04-15T03:58:05.526Z,43.21
2016-04-15T03:59:05.529Z,43.31
2016-04-15T04:00:05.532Z,43.31
2016-04-15T04:01:05.550Z,43.21
2016-04-15T04:02:05.553Z,43.31
2016-04-15T04:03:05.555Z,43.31
2016-04-15T04:04:05.558Z,43.31
2016-04-15T04:05:05.577Z,43.41
2016-04-15T04:06:05.579Z,43.31
2016-04-15T04:07:05.597Z,43.31
2016-04-15T04:08:05.585Z,43.31
2016-04-15T04:09:05.587Z,43.31
2016-04-15T04:10:05.590Z,43.21
2016-04-15T04:11:05.593Z,43.31
2016-04-15T04:12:05.611Z,43.31
2016-04-15T04:13:05.629Z,43.31
2016-04-15T04:14:05.616Z,43.21
2016-04-15T04:15:05.651Z,43.31
2016-04-15T04:16:05.621Z,43.31
2016-04-15T04:17:05.640Z,43.41
2016-04-15T04:18:05.643Z,43.21
2016-04-15T04:19:05.645Z,43.41
2016-04-15T04:20:05.648Z,43.31
2016-04-15T04:21:05.682Z,43.31
2016-04-15T04:22:05.669Z,43.41
2016-04-15T04:23:05.687Z,43.21
2016-04-15T04:24:05.674Z,43.31
2016-04-15T04:25:05.692Z,43.31
2016-04-15T04:26:05.695Z,43.31
2016-04-15T04:27:05.698Z,43.31
2016-04-15T04:28:05.701Z,43.31
2016-04-15T04:29:05.720Z,43.31
2016-04-15T04:30:05.706Z,43.31
2016-04-15T04:31:05.709Z,43.41
2016-04-15T04:32:05.712Z,43.31
2016-04-15T04:33:05.714Z,43.31
2016-04-15T04:34:05.733Z,43.31
2016-04-15T04:35:05.735Z,43.31
2016-04-15T04:36:05.738Z,43.41
2016-04-15T04:37:05.741Z,43.41
2016-04-15T04:38:05.759Z,43.31
2016-04-15T04:39:05.762Z,43.31
2016-04-15T04:40:05.764Z,43.31
2016-04-15T04:41:05.782Z,43.31
2016-04-15T04:42:05.785Z,43.21
2016-04-15T04:43:05.788Z,43.31
2016-04-15T04:44:05.791Z,43.21
2016-04-15T04:45:05.793Z,43.31
2016-04-15T04:46:05.812Z,43.31
2016-04-15T04:47:05.799Z,43.31
2016-04-15T04:48:05.817Z,43.31
2016-04-15T04:49:05.820Z,43.31
2016-04-15T04:50:05.822Z,43.41
2016-04-15T04:51:05.825Z,43.31
2016-04-15T04:52:05.923Z,43.41
2016-04-15T04:53:05.970Z,43.31
2016-04-15T04:54:05.847Z,43.41
2016-04-15T04:55:05.688Z,43.31
2016-04-15T04:56:05.857Z,43.31
2016-04-15T04:57:05.859Z,43.31
2016-04-15T04:58:05.878Z,43.21
2016-04-15T04:59:05.881Z,43.31
2016-04-15T05:00:05.884Z,43.31
2016-04-15T05:01:05.886Z,43.31
2016-04-15T05:02:05.889Z,43.31
2016-04-15T05:03:05.892Z,43.21
2016-04-15T05:04:05.910Z,43.31
2016-04-15T05:05:05.897Z,43.5
2016-04-15T05:06:05.930Z,43.41
2016-04-15T05:07:05.918Z,43.31
2016-04-15T05:08:05.921Z,43.41
2016-04-15T05:09:05.923Z,43.41
2016-04-15T05:10:05.942Z,43.31
2016-04-15T05:11:05.944Z,43.31
2016-04-15T05:12:05.947Z,43.31
2016-04-15T05:13:05.950Z,43.5
2016-04-15T05:14:05.968Z,43.21
2016-04-15T05:15:05.971Z,43.31
2016-04-15T05:16:05.990Z,43.41
2016-04-15T05:17:05.976Z,43.41
2016-04-15T05:18:05.979Z,43.5
2016-04-15T05:19:05.997Z,43.79
2016-04-15T05:20:06.000Z,43.79
2016-04-15T05:21:06.003Z,43.41
2016-04-15T05:22:06.020Z,43.41
2016-04-15T05:23:06.008Z,43.41
2016-04-15T05:24:06.011Z,43.79
2016-04-15T05:25:06.028Z,43.21
2016-04-15T05:26:06.031Z,43.41
2016-04-15T05:27:06.034Z,43.7
2016-04-15T05:28:06.037Z,43.79
2016-04-15T05:29:06.040Z,43.79
2016-04-15T05:30:06.042Z,43.41
2016-04-15T05:31:06.061Z,43.79
2016-04-15T05:32:06.063Z,43.6
2016-04-15T05:33:06.066Z,43.79
2016-04-15T05:34:06.069Z,43.79
2016-04-15T05:35:06.071Z,43.79
2016-04-15T05:36:06.090Z,43.6
2016-04-15T05:37:06.092Z,43.5
2016-04-15T05:38:06.095Z,43.6
2016-04-15T05:39:06.098Z,43.79
2016-04-15T05:40:06.100Z,43.79
2016-04-15T05:41:06.119Z,43.79
2016-04-15T05:42:06.121Z,43.79
2016-04-15T05:43:06.124Z,43.79
2016-04-15T05:44:06.127Z,43.7
2016-04-15T05:45:06.145Z,43.5
2016-04-15T05:46:06.148Z,43.31
2016-04-15T05:47:06.151Z,43.6
2016-04-15T05:48:06.153Z,43.5
2016-04-15T05:49:06.156Z,43.79
2016-04-15T05:50:06.159Z,43.79
2016-04-15T05:51:06.176Z,43.79
2016-04-15T05:52:06.180Z,43.79
2016-04-15T05:53:06.182Z,43.79
2016-04-15T05:54:06.185Z,43.79
2016-04-15T05:55:08.313Z,43.79
2016-04-15T05:56:06.190Z,43.79
2016-04-15T05:57:06.209Z,43.79
2016-04-15T05:58:06.211Z,43.5
2016-04-15T05:59:06.214Z,43.6
2016-04-15T06:00:06.217Z,43.79
2016-04-15T06:01:06.219Z,43.79
2016-04-15T06:02:06.238Z,43.79
2016-04-15T06:03:06.240Z,43.79
2016-04-15T06:04:06.243Z,43.79
2016-04-15T06:05:06.246Z,43.6
2016-04-15T06:06:06.248Z,43.6
2016-04-15T06:07:06.251Z,43.6
2016-04-15T06:08:06.269Z,43.79
2016-04-15T06:09:06.272Z,43.79
2016-04-15T06:10:06.541Z,43.6
2016-04-15T06:11:06.278Z,43.79
2016-04-15T06:12:06.280Z,43.79
2016-04-15T06:13:06.299Z,43.7
2016-04-15T06:14:06.301Z,43.6
2016-04-15T06:15:06.304Z,43.5
2016-04-15T06:16:06.322Z,43.79
2016-04-15T06:17:06.309Z,43.6
2016-04-15T06:18:06.327Z,43.79
2016-04-15T06:19:06.330Z,43.79
2016-04-15T06:20:06.333Z,43.79
2016-04-15T06:21:06.341Z,43.41
2016-04-15T06:22:06.330Z,43.52
2016-04-15T06:23:06.348Z,43.31
2016-04-15T06:24:06.367Z,43.33
2016-04-15T06:25:06.353Z,43.33
2016-04-15T06:26:06.372Z,43.43
2016-04-15T06:27:06.374Z,43.21
2016-04-15T06:28:06.382Z,43.31
2016-04-15T06:29:06.399Z,43.31
2016-04-15T06:30:06.387Z,43.24
2016-04-15T06:31:06.437Z,43.43
2016-04-15T06:32:06.408Z,43.41
2016-04-15T06:33:06.411Z,43.33
2016-04-15T06:34:06.414Z,43.33
2016-04-15T06:35:06.416Z,43.43
2016-04-15T06:36:06.419Z,43.21
2016-04-15T06:37:06.422Z,43.43
2016-04-15T06:38:06.440Z,43.31
2016-04-15T06:39:06.427Z,43.43
2016-04-15T06:40:06.445Z,43.24
2016-04-15T06:41:06.448Z,43.43
2016-04-15T06:42:06.451Z,43.31
2016-04-15T06:43:06.453Z,43.43
2016-04-15T06:44:06.472Z,43.5
2016-04-15T06:45:06.474Z,43.41
2016-04-15T06:46:06.367Z,43.24
2016-04-15T06:47:06.495Z,43.5
2016-04-15T06:48:06.497Z,43.24
2016-04-15T06:49:06.501Z,43.33
2016-04-15T06:50:06.503Z,43.31
2016-04-15T06:51:06.506Z,43.31
2016-04-15T06:52:06.509Z,43.43
2016-04-15T06:53:06.527Z,43.04
2016-04-15T06:54:06.530Z,42.85
2016-04-15T06:55:06.532Z,43.12
2016-04-15T06:56:06.535Z,43.12
2016-04-15T06:57:06.538Z,43.31
2016-04-15T06:58:06.556Z,43.5
2016-04-15T06:59:06.559Z,43.52
2016-04-15T07:00:06.562Z,43.72
2016-04-15T07:01:06.674Z,43.7
2016-04-15T07:02:06.567Z,43.52
2016-04-15T07:03:06.569Z,43.62
2016-04-15T07:04:06.588Z,43.79
2016-04-15T07:05:06.591Z,43.5
2016-04-15T07:06:06.593Z,43.6
2016-04-15T07:07:06.612Z,43.41
2016-04-15T07:08:06.615Z,43.43
2016-04-15T07:09:06.617Z,43.6
2016-04-15T07:10:06.620Z,43.24
2016-04-15T07:11:06.622Z,43.24
2016-04-15T07:12:06.640Z,43.24
2016-04-15T07:13:06.643Z,43.33
2016-04-15T07:14:06.646Z,43.72
2016-04-15T07:15:06.649Z,43.33
2016-04-15T07:16:06.729Z,43.33
2016-04-15T07:17:06.654Z,43.33
2016-04-15T07:18:06.657Z,43.33
2016-04-15T07:19:06.676Z,43.14
2016-04-15T07:20:06.678Z,42.94
2016-04-15T07:21:06.685Z,42.85
2016-04-15T07:22:06.704Z,42.75
2016-04-15T07:23:06.707Z,42.56
2016-04-15T07:24:06.709Z,42.27
2016-04-15T07:25:06.712Z,42.36
2016-04-15T07:26:06.714Z,42.36
2016-04-15T07:27:06.732Z,42.46
2016-04-15T07:28:06.725Z,42.46
2016-04-15T07:29:06.727Z,42.36
2016-04-15T07:30:06.730Z,42.46
2016-04-15T07:31:06.640Z,42.46
2016-04-15T07:32:06.751Z,42.56
2016-04-15T07:33:06.754Z,42.36
2016-04-15T07:34:06.756Z,42.56
2016-04-15T07:35:06.775Z,42.27
2016-04-15T07:36:06.778Z,42.18
2016-04-15T07:37:06.780Z,42.46
2016-04-15T07:38:06.783Z,42.56
2016-04-15T07:39:06.786Z,42.46
2016-04-15T07:40:06.803Z,42.36
2016-04-15T07:41:06.807Z,42.46
2016-04-15T07:42:06.809Z,42.36
2016-04-15T07:43:06.812Z,42.46
2016-04-15T07:44:06.815Z,42.18
2016-04-15T07:45:06.833Z,42.27
2016-04-15T07:46:06.867Z,42.27
2016-04-15T07:47:06.838Z,42.27
2016-04-15T07:48:06.857Z,42.27
2016-04-15T07:49:06.844Z,42.08
2016-04-15T07:50:06.862Z,41.98
2016-04-15T07:51:06.865Z,42.18
2016-04-15T07:52:06.867Z,42.08
2016-04-15T07:53:06.885Z,41.78
2016-04-15T07:54:06.888Z,41.88
2016-04-15T07:55:06.890Z,41.69
2016-04-15T07:56:06.894Z,41.3
2016-04-15T07:57:06.896Z,41.69
2016-04-15T07:58:06.899Z,41.5
2016-04-15T07:59:06.917Z,41.6
2016-04-15T08:00:06.920Z,41.6
2016-04-15T08:01:06.938Z,41.78
2016-04-15T08:02:06.925Z,41.5
2016-04-15T08:03:06.943Z,41.6
2016-04-15T08:04:06.931Z,41.5
2016-04-15T08:05:06.949Z,41.3
2016-04-15T08:06:06.952Z,41.3
2016-04-15T08:07:06.971Z,41.2
2016-04-15T08:08:06.973Z,41.3
2016-04-15T08:09:06.976Z,41.2
2016-04-15T08:10:06.978Z,41.3
2016-04-15T08:11:06.981Z,41.69
2016-04-15T08:12:06.984Z,41.69
2016-04-15T08:13:06.986Z,41.69
2016-04-15T08:14:07.005Z,41.6
2016-04-15T08:15:07.007Z,41.4
2016-04-15T08:16:07.058Z,41.88
2016-04-15T08:17:07.013Z,41.78
2016-04-15T08:18:07.016Z,41.6
2016-04-15T08:19:07.034Z,41.88
2016-04-15T08:20:07.036Z,41.3
2016-04-15T08:21:07.045Z,41.5
2016-04-15T08:22:07.048Z,41.6
2016-04-15T08:23:07.050Z,41.88
2016-04-15T08:24:07.084Z,42.27
2016-04-15T08:25:07.071Z,41.98
2016-04-15T08:26:07.074Z,41.78
2016-04-15T08:27:07.108Z,42.08
2016-04-15T08:28:07.079Z,42.27
2016-04-15T08:29:07.098Z,42.27
2016-04-15T08:30:07.100Z,42.18
2016-04-15T08:31:07.108Z,42.27
2016-04-15T08:32:07.153Z,42.46
2016-04-15T08:33:07.198Z,42.46
2016-04-15T08:34:07.243Z,42.46
2016-04-15T08:35:07.305Z,42.56
2016-04-15T08:36:07.363Z,42.46
2016-04-15T08:37:07.365Z,42.36
2016-04-15T08:38:07.399Z,42.36
2016-04-15T08:39:07.417Z,42.36
2016-04-15T08:40:07.435Z,42.27
2016-04-15T08:41:07.452Z,42.56
2016-04-15T08:42:07.475Z,42.27
2016-04-15T08:43:07.483Z,42.85
2016-04-15T08:44:07.492Z,42.85
2016-04-15T08:45:07.500Z,42.85
2016-04-15T08:46:07.585Z,42.94
2016-04-15T08:47:07.528Z,42.85
2016-04-15T08:48:07.532Z,42.85
2016-04-15T08:49:07.537Z,42.85
2016-04-15T08:50:07.556Z,43.14
2016-04-15T08:51:07.561Z,43.04
2016-04-15T08:52:07.565Z,43.24
2016-04-15T08:53:07.584Z,43.14
2016-04-15T08:54:07.572Z,43.04
2016-04-15T08:55:07.591Z,43.24
2016-04-15T08:56:07.594Z,43.24
2016-04-15T08:57:07.613Z,43.04
2016-04-15T08:58:07.600Z,43.04
2016-04-15T08:59:07.620Z,43.24
2016-04-15T09:00:07.622Z,43.24
2016-04-15T09:01:07.625Z,43.26
2016-04-15T09:02:07.628Z,43.16
2016-04-15T09:03:07.646Z,43.26
2016-04-15T09:04:07.649Z,43.35
2016-04-15T09:05:07.668Z,43.35
2016-04-15T09:06:07.654Z,43.45
2016-04-15T09:07:07.673Z,43.35
2016-04-15T09:08:07.675Z,43.35
2016-04-15T09:09:07.678Z,43.26
2016-04-15T09:10:07.697Z,43.35
2016-04-15T09:11:07.683Z,43.45
2016-04-15T09:12:07.702Z,43.35
2016-04-15T09:13:07.719Z,43.35
2016-04-15T09:14:07.707Z,43.45
2016-04-15T09:15:07.725Z,43.35
2016-04-15T09:16:07.728Z,43.54
2016-04-15T09:17:07.747Z,43.84
2016-04-15T09:18:07.733Z,43.93
2016-04-15T09:19:07.752Z,43.74
2016-04-15T09:20:07.754Z,43.74
2016-04-15T09:21:07.757Z,43.64
2016-04-15T09:22:07.760Z,43.64
2016-04-15T09:23:07.763Z,43.64
2016-04-15T09:24:07.796Z,43.74
2016-04-15T09:25:07.784Z,43.84
2016-04-15T09:26:07.786Z,43.84
2016-04-15T09:27:07.836Z,44.03
2016-04-15T09:28:07.807Z,43.93
2016-04-15T09:29:07.826Z,43.64
2016-04-15T09:30:07.829Z,43.74
2016-04-15T09:31:07.831Z,43.93
2016-04-15T09:32:07.849Z,44.03
2016-04-15T09:33:07.836Z,43.93
2016-04-15T09:34:07.839Z,43.64
2016-04-15T09:35:07.842Z,43.93
2016-04-15T09:36:07.860Z,43.93
2016-04-15T09:37:07.863Z,43.93
2016-04-15T09:38:07.865Z,44.03
2016-04-15T09:39:07.884Z,43.84
2016-04-15T09:40:07.902Z,43.74
2016-04-15T09:41:07.889Z,43.74
2016-04-15T09:42:07.908Z,43.84
2016-04-15T09:43:07.910Z,43.74
2016-04-15T09:44:07.913Z,43.93
2016-04-15T09:45:07.915Z,44.15
2016-04-15T09:46:07.918Z,43.84
2016-04-15T09:47:07.921Z,43.76
2016-04-15T09:48:07.939Z,43.84
2016-04-15T09:49:07.942Z,44.03
2016-04-15T09:50:07.944Z,43.84
2016-04-15T09:51:07.963Z,43.74
2016-04-15T09:52:07.965Z,43.93
2016-04-15T09:53:07.968Z,43.74
2016-04-15T09:54:07.986Z,43.64
2016-04-15T09:55:07.989Z,44.03
2016-04-15T09:56:07.992Z,43.74
2016-04-15T09:57:07.995Z,43.93
2016-04-15T09:58:08.013Z,43.93
2016-04-15T09:59:08.016Z,44.03
2016-04-15T10:00:08.034Z,43.74
2016-04-15T10:01:08.037Z,43.93
2016-04-15T10:02:08.023Z,43.93
2016-04-15T10:03:08.042Z,44.05
2016-04-15T10:04:08.045Z,43.64
2016-04-15T10:05:08.062Z,43.74
2016-04-15T10:06:08.065Z,43.66
2016-04-15T10:07:08.068Z,43.66
2016-04-15T10:08:08.071Z,43.54
2016-04-15T10:09:08.074Z,43.54
2016-04-15T10:10:08.076Z,43.84
2016-04-15T10:11:08.095Z,43.74
2016-04-15T10:12:08.113Z,43.76
2016-04-15T10:13:08.100Z,43.64
2016-04-15T10:14:08.119Z,43.64
2016-04-15T10:15:08.121Z,43.93
2016-04-15T10:16:08.124Z,43.95
2016-04-15T10:17:08.141Z,43.93
2016-04-15T10:18:08.129Z,44.12
2016-04-15T10:19:08.132Z,44.03
2016-04-15T10:20:08.150Z,43.74
2016-04-15T10:21:08.153Z,43.85
2016-04-15T10:22:08.171Z,43.84
2016-04-15T10:23:08.174Z,43.84
2016-04-15T10:24:08.176Z,43.74
2016-04-15T10:25:08.194Z,44.03
2016-04-15T10:26:08.197Z,44.22
2016-04-15T10:27:08.200Z,44.05
2016-04-15T10:28:08.203Z,43.95
2016-04-15T10:29:08.206Z,44.05
2016-04-15T10:30:08.224Z,43.95
2016-04-15T10:31:08.227Z,43.64
2016-04-15T10:32:08.245Z,44.32
2016-04-15T10:33:08.248Z,44.34
2016-04-15T10:34:08.250Z,44.51
2016-04-15T10:35:08.253Z,44.51
2016-04-15T10:36:08.271Z,44.53
2016-04-15T10:37:08.273Z,44.32
2016-04-15T10:38:08.277Z,44.42
2016-04-15T10:39:08.279Z,44.32
2016-04-15T10:40:08.298Z,44.8
2016-04-15T10:41:08.300Z,44.42
2016-04-15T10:42:08.303Z,44.73
2016-04-15T10:43:08.322Z,44.51
2016-04-15T10:44:08.308Z,44.32
2016-04-15T10:45:08.327Z,44.42
2016-04-15T10:46:08.329Z,44.34
2016-04-15T10:47:08.332Z,44.43
2016-04-15T10:48:08.335Z,44.34
2016-04-15T10:49:08.337Z,44.42
2016-04-15T10:50:08.372Z,44.9
2016-04-15T10:51:08.358Z,44.82
2016-04-15T10:52:08.377Z,44.82
2016-04-15T10:53:08.379Z,44.82
2016-04-15T10:54:08.382Z,44.53
2016-04-15T10:55:08.400Z,44.73
2016-04-15T10:56:08.388Z,44.24
2016-04-15T10:57:08.406Z,44.34
2016-04-15T10:58:08.409Z,44.43
2016-04-15T10:59:08.411Z,44.43
2016-04-15T11:00:08.446Z,44.63
2016-04-15T11:01:08.433Z,44.92
2016-04-15T11:02:08.435Z,44.73
2016-04-15T11:03:08.454Z,44.92
2016-04-15T11:04:08.456Z,44.82
2016-04-15T11:05:08.474Z,44.92
2016-04-15T11:06:08.461Z,44.73
2016-04-15T11:07:08.479Z,45.01
2016-04-15T11:08:08.467Z,45.11
2016-04-15T11:09:08.485Z,45.01
2016-04-15T11:10:08.488Z,44.92
2016-04-15T11:11:08.506Z,45.11
2016-04-15T11:12:08.509Z,45.01
2016-04-15T11:13:08.512Z,44.92
2016-04-15T11:14:08.530Z,45.11
2016-04-15T11:15:08.533Z,45.33
2016-04-15T11:16:08.535Z,45.4
2016-04-15T11:17:08.538Z,45.4
2016-04-15T11:18:08.555Z,45.23
2016-04-15T11:19:08.543Z,45.23
2016-04-15T11:20:08.577Z,45.33
2016-04-15T11:21:08.564Z,45.59
2016-04-15T11:22:08.567Z,45.62
2016-04-15T11:23:08.585Z,45.72
2016-04-15T11:24:08.588Z,45.62
2016-04-15T11:25:08.590Z,45.81
2016-04-15T11:26:08.593Z,45.62
2016-04-15T11:27:08.611Z,45.72
2016-04-15T11:28:08.630Z,45.81
2016-04-15T11:29:08.633Z,46
2016-04-15T11:30:08.636Z,46.1
2016-04-15T11:31:08.638Z,45.42
2016-04-15T11:32:08.735Z,44.75
2016-04-15T11:33:08.643Z,44.63
2016-04-15T11:34:08.662Z,44.73
2016-04-15T11:35:08.977Z,44.73
2016-04-15T11:36:08.667Z,44.92
2016-04-15T11:37:08.685Z,44.92
2016-04-15T11:38:08.703Z,45.01
2016-04-15T11:39:08.691Z,44.82
2016-04-15T11:40:08.693Z,45.01
2016-04-15T11:41:08.712Z,45.11
2016-04-15T11:42:08.714Z,45.5
2016-04-15T11:43:08.733Z,45.21
2016-04-15T11:44:08.736Z,45.21
2016-04-15T11:45:08.738Z,45.31
2016-04-15T11:46:08.741Z,45.31
2016-04-15T11:47:08.853Z,45.4
2016-04-15T11:48:08.761Z,45.21
2016-04-15T11:49:08.764Z,45.4
2016-04-15T11:50:08.767Z,45.5
2016-04-15T11:51:08.785Z,45.4
2016-04-15T11:52:08.772Z,45.4
2016-04-15T11:53:08.791Z,45.5
2016-04-15T11:54:08.793Z,45.4
2016-04-15T11:55:08.702Z,45.31
2016-04-15T11:56:08.814Z,45.31
2016-04-15T11:57:08.817Z,45.5
2016-04-15T11:58:08.820Z,45.4
2016-04-15T11:59:08.838Z,45.59
2016-04-15T12:00:08.841Z,45.59
2016-04-15T12:01:08.843Z,45.5
2016-04-15T12:02:08.940Z,45.59
2016-04-15T12:03:08.848Z,45.5
2016-04-15T12:04:08.867Z,45.5
2016-04-15T12:05:08.870Z,45.69
2016-04-15T12:06:08.873Z,45.69
2016-04-15T12:07:08.890Z,45.59
2016-04-15T12:08:08.894Z,45.59
2016-04-15T12:09:08.787Z,45.59
2016-04-15T12:10:09.542Z,45.5
2016-04-15T12:11:08.920Z,45.59
2016-04-15T12:12:08.922Z,45.69
2016-04-15T12:13:08.925Z,45.69
2016-04-15T12:14:08.927Z,45.69
2016-04-15T12:15:09.492Z,45.59
2016-04-15T12:16:08.948Z,45.59
2016-04-15T12:17:08.983Z,45.59
2016-04-15T12:18:08.969Z,45.69
2016-04-15T12:19:08.972Z,45.59
2016-04-15T12:20:08.991Z,45.59
2016-04-15T12:21:08.977Z,45.69
2016-04-15T12:22:08.855Z,45.59
2016-04-15T12:23:08.998Z,45.5
2016-04-15T12:24:09.001Z,45.69
2016-04-15T12:25:09.019Z,45.69
2016-04-15T12:26:09.016Z,45.59
2016-04-15T12:27:09.019Z,45.69
2016-04-15T12:28:09.037Z,45.79
2016-04-15T12:29:09.040Z,45.89
2016-04-15T12:30:09.043Z,45.79
2016-04-15T12:31:09.061Z,45.89
2016-04-15T12:32:09.126Z,45.89
2016-04-15T12:33:09.081Z,45.98
2016-04-15T12:34:09.069Z,45.89
2016-04-15T12:35:09.087Z,45.79
2016-04-15T12:36:09.090Z,45.98
2016-04-15T12:37:09.109Z,45.89
2016-04-15T12:38:09.111Z,46.08
2016-04-15T12:39:09.114Z,45.89
2016-04-15T12:40:09.116Z,45.98
2016-04-15T12:41:09.119Z,46.08
2016-04-15T12:42:09.138Z,46.08
2016-04-15T12:43:09.140Z,46.08
2016-04-15T12:44:09.143Z,45.98
2016-04-15T12:45:09.160Z,45.98
2016-04-15T12:46:09.164Z,46.08
2016-04-15T12:47:09.198Z,45.98
2016-04-15T12:48:09.185Z,46.27
2016-04-15T12:49:09.188Z,46.37
2016-04-15T12:50:09.190Z,46.27
2016-04-15T12:51:09.209Z,46.17
2016-04-15T12:52:09.211Z,46.17
2016-04-15T12:53:09.214Z,46.27
2016-04-15T12:54:09.216Z,46.27